sensor_id;sensor_type;location;lat;lon;timestamp;P1;durP1;ratioP1;P2;durP2;ratioP2
42104;SDS011;68365;51.472;5.712;2023-04-08T00:02:11;9.38;;;4.40;;
42104;SDS011;68365;51.472;5.712;2023-04-08T00:04:37;9.55;;;4.40;;
42104;SDS011;68365;51.472;5.712;2023-04-08T00:07:03;10.82;;;4.63;;
42104;SDS011;68365;51.472;5.712;2023-04-08T00:09:30;9.57;;;4.35;;
42104;SDS011;68365;51.472;5.712;2023-04-08T00:11:55;9.75;;;4.80;;
42104;SDS011;68365;51.472;5.712;2023-04-08T00:14:21;10.45;;;4.88;;
42104;SDS011;68365;51.472;5.712;2023-04-08T00:16:47;8.50;;;4.15;;
42104;SDS011;68365;51.472;5.712;2023-04-08T00:19:13;8.88;;;4.63;;
42104;SDS011;68365;51.472;5.712;2023-04-08T00:21:39;9.13;;;4.75;;
42104;SDS011;68365;51.472;5.712;2023-04-08T00:24:05;12.73;;;4.45;;
42104;SDS011;68365;51.472;5.712;2023-04-08T00:26:31;8.23;;;3.92;;
42104;SDS011;68365;51.472;5.712;2023-04-08T00:28:57;11.23;;;4.68;;
42104;SDS011;68365;51.472;5.712;2023-04-08T00:31:22;9.80;;;4.07;;
42104;SDS011;68365;51.472;5.712;2023-04-08T00:33:48;14.27;;;4.65;;
42104;SDS011;68365;51.472;5.712;2023-04-08T00:36:14;12.48;;;4.75;;
42104;SDS011;68365;51.472;5.712;2023-04-08T00:38:40;8.02;;;4.35;;
42104;SDS011;68365;51.472;5.712;2023-04-08T00:41:06;8.38;;;4.20;;
42104;SDS011;68365;51.472;5.712;2023-04-08T00:43:32;11.18;;;4.82;;
42104;SDS011;68365;51.472;5.712;2023-04-08T00:45:58;9.50;;;4.53;;
42104;SDS011;68365;51.472;5.712;2023-04-08T00:48:23;9.60;;;4.15;;
42104;SDS011;68365;51.472;5.712;2023-04-08T00:50:49;10.20;;;4.25;;
42104;SDS011;68365;51.472;5.712;2023-04-08T00:53:16;7.90;;;4.13;;
42104;SDS011;68365;51.472;5.712;2023-04-08T00:55:43;8.82;;;4.32;;
42104;SDS011;68365;51.472;5.712;2023-04-08T00:58:09;10.85;;;4.30;;
42104;SDS011;68365;51.472;5.712;2023-04-08T01:00:38;8.63;;;4.35;;
42104;SDS011;68365;51.472;5.712;2023-04-08T01:03:15;9.27;;;4.07;;
42104;SDS011;68365;51.472;5.712;2023-04-08T01:08:45;9.40;;;4.60;;
42104;SDS011;68365;51.472;5.712;2023-04-08T01:11:11;8.90;;;4.40;;
42104;SDS011;68365;51.472;5.712;2023-04-08T01:13:39;10.25;;;4.30;;
42104;SDS011;68365;51.472;5.712;2023-04-08T01:16:11;10.05;;;4.60;;
42104;SDS011;68365;51.472;5.712;2023-04-08T01:18:41;10.03;;;4.60;;
42104;SDS011;68365;51.472;5.712;2023-04-08T01:21:09;11.10;;;4.28;;
42104;SDS011;68365;51.472;5.712;2023-04-08T01:23:47;9.25;;;4.40;;
42104;SDS011;68365;51.472;5.712;2023-04-08T01:26:26;7.03;;;3.67;;
42104;SDS011;68365;51.472;5.712;2023-04-08T01:28:53;7.80;;;4.28;;
42104;SDS011;68365;51.472;5.712;2023-04-08T01:31:23;8.45;;;4.30;;
42104;SDS011;68365;51.472;5.712;2023-04-08T01:33:50;8.13;;;3.80;;
42104;SDS011;68365;51.472;5.712;2023-04-08T01:36:18;8.52;;;3.80;;
42104;SDS011;68365;51.472;5.712;2023-04-08T01:38:45;9.18;;;4.00;;
42104;SDS011;68365;51.472;5.712;2023-04-08T01:41:13;9.23;;;4.22;;
42104;SDS011;68365;51.472;5.712;2023-04-08T01:43:42;10.48;;;4.28;;
42104;SDS011;68365;51.472;5.712;2023-04-08T01:46:10;7.68;;;3.70;;
42104;SDS011;68365;51.472;5.712;2023-04-08T01:48:37;8.23;;;4.05;;
42104;SDS011;68365;51.472;5.712;2023-04-08T01:51:06;8.23;;;4.03;;
42104;SDS011;68365;51.472;5.712;2023-04-08T01:53:33;7.63;;;3.70;;
42104;SDS011;68365;51.472;5.712;2023-04-08T01:56:03;9.45;;;4.22;;
42104;SDS011;68365;51.472;5.712;2023-04-08T01:58:41;7.72;;;3.65;;
42104;SDS011;68365;51.472;5.712;2023-04-08T02:01:16;8.85;;;4.38;;
42104;SDS011;68365;51.472;5.712;2023-04-08T02:03:46;6.32;;;3.72;;
42104;SDS011;68365;51.472;5.712;2023-04-08T02:06:16;7.03;;;3.80;;
42104;SDS011;68365;51.472;5.712;2023-04-08T02:08:42;7.40;;;3.85;;
42104;SDS011;68365;51.472;5.712;2023-04-08T02:11:07;7.40;;;3.63;;
42104;SDS011;68365;51.472;5.712;2023-04-08T02:13:34;7.88;;;4.00;;
42104;SDS011;68365;51.472;5.712;2023-04-08T02:16:14;7.35;;;3.80;;
42104;SDS011;68365;51.472;5.712;2023-04-08T02:18:55;8.57;;;4.15;;
42104;SDS011;68365;51.472;5.712;2023-04-08T02:21:35;7.90;;;3.95;;
42104;SDS011;68365;51.472;5.712;2023-04-08T02:24:10;7.35;;;3.90;;
42104;SDS011;68365;51.472;5.712;2023-04-08T02:26:39;6.93;;;3.72;;
42104;SDS011;68365;51.472;5.712;2023-04-08T02:29:07;9.68;;;3.88;;
42104;SDS011;68365;51.472;5.712;2023-04-08T02:31:39;7.75;;;4.03;;
42104;SDS011;68365;51.472;5.712;2023-04-08T02:34:08;8.77;;;4.47;;
42104;SDS011;68365;51.472;5.712;2023-04-08T02:36:35;6.40;;;3.88;;
42104;SDS011;68365;51.472;5.712;2023-04-08T02:39:03;7.47;;;3.70;;
42104;SDS011;68365;51.472;5.712;2023-04-08T02:41:29;9.45;;;4.18;;
42104;SDS011;68365;51.472;5.712;2023-04-08T02:43:55;8.27;;;3.60;;
42104;SDS011;68365;51.472;5.712;2023-04-08T02:46:21;9.15;;;4.25;;
42104;SDS011;68365;51.472;5.712;2023-04-08T02:48:47;9.65;;;4.40;;
42104;SDS011;68365;51.472;5.712;2023-04-08T02:51:13;7.47;;;4.00;;
42104;SDS011;68365;51.472;5.712;2023-04-08T02:53:39;7.57;;;3.75;;
42104;SDS011;68365;51.472;5.712;2023-04-08T02:56:05;9.40;;;3.83;;
42104;SDS011;68365;51.472;5.712;2023-04-08T02:58:34;6.95;;;3.95;;
42104;SDS011;68365;51.472;5.712;2023-04-08T03:01:00;8.85;;;3.95;;
42104;SDS011;68365;51.472;5.712;2023-04-08T03:03:25;8.65;;;4.10;;
42104;SDS011;68365;51.472;5.712;2023-04-08T03:05:53;7.28;;;3.95;;
42104;SDS011;68365;51.472;5.712;2023-04-08T03:08:20;7.63;;;3.70;;
42104;SDS011;68365;51.472;5.712;2023-04-08T03:10:46;7.32;;;3.83;;
42104;SDS011;68365;51.472;5.712;2023-04-08T03:13:13;7.65;;;4.13;;
42104;SDS011;68365;51.472;5.712;2023-04-08T03:15:40;7.70;;;3.70;;
42104;SDS011;68365;51.472;5.712;2023-04-08T03:18:06;7.90;;;4.07;;
42104;SDS011;68365;51.472;5.712;2023-04-08T03:20:32;8.00;;;3.80;;
42104;SDS011;68365;51.472;5.712;2023-04-08T03:22:58;6.75;;;3.42;;
42104;SDS011;68365;51.472;5.712;2023-04-08T03:25:24;6.63;;;3.60;;
42104;SDS011;68365;51.472;5.712;2023-04-08T03:27:50;6.28;;;3.90;;
42104;SDS011;68365;51.472;5.712;2023-04-08T03:30:16;6.40;;;3.75;;
42104;SDS011;68365;51.472;5.712;2023-04-08T03:32:42;6.93;;;3.85;;
42104;SDS011;68365;51.472;5.712;2023-04-08T03:35:11;5.50;;;3.72;;
42104;SDS011;68365;51.472;5.712;2023-04-08T03:37:36;8.23;;;4.35;;
42104;SDS011;68365;51.472;5.712;2023-04-08T03:40:03;8.38;;;3.83;;
42104;SDS011;68365;51.472;5.712;2023-04-08T03:42:29;8.82;;;4.25;;
42104;SDS011;68365;51.472;5.712;2023-04-08T03:44:56;7.43;;;3.80;;
42104;SDS011;68365;51.472;5.712;2023-04-08T03:47:22;5.80;;;3.53;;
42104;SDS011;68365;51.472;5.712;2023-04-08T03:49:48;7.00;;;3.80;;
42104;SDS011;68365;51.472;5.712;2023-04-08T03:52:16;8.73;;;4.20;;
42104;SDS011;68365;51.472;5.712;2023-04-08T03:54:42;7.78;;;3.63;;
42104;SDS011;68365;51.472;5.712;2023-04-08T03:57:08;6.63;;;3.75;;
42104;SDS011;68365;51.472;5.712;2023-04-08T03:59:35;6.72;;;3.97;;
42104;SDS011;68365;51.472;5.712;2023-04-08T04:02:03;7.75;;;3.80;;
42104;SDS011;68365;51.472;5.712;2023-04-08T04:04:29;7.13;;;3.83;;
42104;SDS011;68365;51.472;5.712;2023-04-08T04:06:55;5.93;;;3.50;;
42104;SDS011;68365;51.472;5.712;2023-04-08T04:09:21;6.25;;;3.60;;
42104;SDS011;68365;51.472;5.712;2023-04-08T04:11:47;6.70;;;3.88;;
42104;SDS011;68365;51.472;5.712;2023-04-08T04:14:12;7.50;;;3.83;;
42104;SDS011;68365;51.472;5.712;2023-04-08T04:16:38;7.05;;;3.60;;
42104;SDS011;68365;51.472;5.712;2023-04-08T04:19:04;6.68;;;4.03;;
42104;SDS011;68365;51.472;5.712;2023-04-08T04:21:30;6.80;;;3.53;;
42104;SDS011;68365;51.472;5.712;2023-04-08T04:23:56;6.65;;;3.70;;
42104;SDS011;68365;51.472;5.712;2023-04-08T04:26:22;5.93;;;3.58;;
42104;SDS011;68365;51.472;5.712;2023-04-08T04:28:47;6.80;;;3.80;;
42104;SDS011;68365;51.472;5.712;2023-04-08T04:31:31;7.38;;;3.97;;
42104;SDS011;68365;51.472;5.712;2023-04-08T04:33:57;7.93;;;4.00;;
42104;SDS011;68365;51.472;5.712;2023-04-08T04:36:23;7.80;;;4.13;;
42104;SDS011;68365;51.472;5.712;2023-04-08T04:38:50;7.97;;;4.18;;
42104;SDS011;68365;51.472;5.712;2023-04-08T04:41:16;6.55;;;3.80;;
42104;SDS011;68365;51.472;5.712;2023-04-08T04:43:42;6.65;;;3.60;;
42104;SDS011;68365;51.472;5.712;2023-04-08T04:46:08;7.30;;;3.30;;
42104;SDS011;68365;51.472;5.712;2023-04-08T04:48:34;6.22;;;3.80;;
42104;SDS011;68365;51.472;5.712;2023-04-08T04:51:00;6.70;;;3.80;;
42104;SDS011;68365;51.472;5.712;2023-04-08T04:53:29;6.40;;;3.80;;
42104;SDS011;68365;51.472;5.712;2023-04-08T04:55:55;6.60;;;4.10;;
42104;SDS011;68365;51.472;5.712;2023-04-08T04:58:21;5.40;;;3.40;;
42104;SDS011;68365;51.472;5.712;2023-04-08T05:00:47;6.32;;;3.78;;
42104;SDS011;68365;51.472;5.712;2023-04-08T05:03:13;6.07;;;3.47;;
42104;SDS011;68365;51.472;5.712;2023-04-08T05:05:38;6.80;;;3.70;;
42104;SDS011;68365;51.472;5.712;2023-04-08T05:08:04;5.97;;;3.72;;
42104;SDS011;68365;51.472;5.712;2023-04-08T05:10:31;7.38;;;3.63;;
42104;SDS011;68365;51.472;5.712;2023-04-08T05:12:57;6.93;;;3.60;;
42104;SDS011;68365;51.472;5.712;2023-04-08T05:15:23;8.93;;;3.83;;
42104;SDS011;68365;51.472;5.712;2023-04-08T05:17:48;7.80;;;3.63;;
42104;SDS011;68365;51.472;5.712;2023-04-08T05:20:14;6.75;;;3.67;;
42104;SDS011;68365;51.472;5.712;2023-04-08T05:22:40;6.32;;;3.47;;
42104;SDS011;68365;51.472;5.712;2023-04-08T05:25:09;6.50;;;3.70;;
42104;SDS011;68365;51.472;5.712;2023-04-08T05:27:35;6.45;;;3.92;;
42104;SDS011;68365;51.472;5.712;2023-04-08T05:30:01;6.82;;;3.60;;
42104;SDS011;68365;51.472;5.712;2023-04-08T05:32:28;6.80;;;3.72;;
42104;SDS011;68365;51.472;5.712;2023-04-08T05:34:54;7.38;;;3.80;;
42104;SDS011;68365;51.472;5.712;2023-04-08T05:37:20;7.85;;;3.70;;
42104;SDS011;68365;51.472;5.712;2023-04-08T05:39:46;6.00;;;3.67;;
42104;SDS011;68365;51.472;5.712;2023-04-08T05:42:11;7.10;;;3.90;;
42104;SDS011;68365;51.472;5.712;2023-04-08T05:44:38;6.40;;;3.92;;
42104;SDS011;68365;51.472;5.712;2023-04-08T05:47:05;7.45;;;4.28;;
42104;SDS011;68365;51.472;5.712;2023-04-08T05:49:32;6.45;;;3.88;;
42104;SDS011;68365;51.472;5.712;2023-04-08T05:51:58;5.40;;;3.63;;
42104;SDS011;68365;51.472;5.712;2023-04-08T05:54:24;6.35;;;3.78;;
42104;SDS011;68365;51.472;5.712;2023-04-08T05:56:50;6.13;;;4.03;;
42104;SDS011;68365;51.472;5.712;2023-04-08T05:59:16;6.85;;;3.70;;
42104;SDS011;68365;51.472;5.712;2023-04-08T06:01:41;8.63;;;3.80;;
42104;SDS011;68365;51.472;5.712;2023-04-08T06:04:07;6.47;;;3.97;;
42104;SDS011;68365;51.472;5.712;2023-04-08T06:06:33;7.78;;;3.55;;
42104;SDS011;68365;51.472;5.712;2023-04-08T06:08:59;6.18;;;4.05;;
42104;SDS011;68365;51.472;5.712;2023-04-08T06:11:25;8.13;;;4.13;;
42104;SDS011;68365;51.472;5.712;2023-04-08T06:13:51;6.72;;;3.53;;
42104;SDS011;68365;51.472;5.712;2023-04-08T06:16:16;6.82;;;3.75;;
42104;SDS011;68365;51.472;5.712;2023-04-08T06:18:42;7.97;;;3.50;;
42104;SDS011;68365;51.472;5.712;2023-04-08T06:21:08;6.65;;;3.53;;
42104;SDS011;68365;51.472;5.712;2023-04-08T06:23:35;6.50;;;4.13;;
42104;SDS011;68365;51.472;5.712;2023-04-08T06:26:01;5.47;;;3.72;;
42104;SDS011;68365;51.472;5.712;2023-04-08T06:28:30;6.82;;;3.80;;
42104;SDS011;68365;51.472;5.712;2023-04-08T06:30:57;9.70;;;3.90;;
42104;SDS011;68365;51.472;5.712;2023-04-08T06:33:23;7.78;;;4.03;;
42104;SDS011;68365;51.472;5.712;2023-04-08T06:35:49;5.28;;;3.30;;
42104;SDS011;68365;51.472;5.712;2023-04-08T06:38:15;8.55;;;3.80;;
42104;SDS011;68365;51.472;5.712;2023-04-08T06:40:41;10.73;;;3.83;;
42104;SDS011;68365;51.472;5.712;2023-04-08T06:43:07;9.85;;;4.00;;
42104;SDS011;68365;51.472;5.712;2023-04-08T06:45:33;7.38;;;3.88;;
42104;SDS011;68365;51.472;5.712;2023-04-08T06:47:59;7.55;;;3.67;;
42104;SDS011;68365;51.472;5.712;2023-04-08T06:50:25;5.47;;;3.67;;
42104;SDS011;68365;51.472;5.712;2023-04-08T06:52:51;6.82;;;3.80;;
42104;SDS011;68365;51.472;5.712;2023-04-08T06:55:17;8.77;;;4.28;;
42104;SDS011;68365;51.472;5.712;2023-04-08T06:57:42;6.35;;;3.67;;
42104;SDS011;68365;51.472;5.712;2023-04-08T07:00:08;10.02;;;4.10;;
42104;SDS011;68365;51.472;5.712;2023-04-08T07:02:35;7.97;;;3.60;;
42104;SDS011;68365;51.472;5.712;2023-04-08T07:05:00;12.93;;;4.20;;
42104;SDS011;68365;51.472;5.712;2023-04-08T07:07:26;11.18;;;4.28;;
42104;SDS011;68365;51.472;5.712;2023-04-08T07:09:52;8.82;;;4.25;;
42104;SDS011;68365;51.472;5.712;2023-04-08T07:12:18;11.10;;;4.25;;
42104;SDS011;68365;51.472;5.712;2023-04-08T07:14:44;7.03;;;4.00;;
42104;SDS011;68365;51.472;5.712;2023-04-08T07:17:10;10.20;;;3.88;;
42104;SDS011;68365;51.472;5.712;2023-04-08T07:19:36;16.02;;;4.10;;
42104;SDS011;68365;51.472;5.712;2023-04-08T07:22:02;14.38;;;4.20;;
42104;SDS011;68365;51.472;5.712;2023-04-08T07:24:29;9.40;;;4.65;;
42104;SDS011;68365;51.472;5.712;2023-04-08T07:26:55;12.32;;;4.85;;
42104;SDS011;68365;51.472;5.712;2023-04-08T07:29:22;14.65;;;4.68;;
42104;SDS011;68365;51.472;5.712;2023-04-08T07:31:48;14.82;;;4.72;;
42104;SDS011;68365;51.472;5.712;2023-04-08T07:34:14;12.48;;;4.22;;
42104;SDS011;68365;51.472;5.712;2023-04-08T07:36:40;13.23;;;4.43;;
42104;SDS011;68365;51.472;5.712;2023-04-08T07:39:06;14.02;;;4.30;;
42104;SDS011;68365;51.472;5.712;2023-04-08T07:41:31;9.30;;;4.10;;
42104;SDS011;68365;51.472;5.712;2023-04-08T07:43:57;11.45;;;4.20;;
42104;SDS011;68365;51.472;5.712;2023-04-08T07:46:26;8.88;;;4.25;;
42104;SDS011;68365;51.472;5.712;2023-04-08T07:48:55;11.20;;;4.15;;
42104;SDS011;68365;51.472;5.712;2023-04-08T07:51:21;13.93;;;4.35;;
42104;SDS011;68365;51.472;5.712;2023-04-08T07:53:47;12.38;;;4.35;;
42104;SDS011;68365;51.472;5.712;2023-04-08T07:56:13;15.75;;;4.20;;
42104;SDS011;68365;51.472;5.712;2023-04-08T07:58:42;10.10;;;4.40;;
42104;SDS011;68365;51.472;5.712;2023-04-08T08:01:15;9.55;;;4.38;;
42104;SDS011;68365;51.472;5.712;2023-04-08T08:03:47;14.65;;;3.97;;
42104;SDS011;68365;51.472;5.712;2023-04-08T08:06:16;12.90;;;4.85;;
42104;SDS011;68365;51.472;5.712;2023-04-08T08:08:42;13.55;;;5.25;;
42104;SDS011;68365;51.472;5.712;2023-04-08T08:11:08;14.82;;;5.22;;
42104;SDS011;68365;51.472;5.712;2023-04-08T08:13:34;7.07;;;4.85;;
42104;SDS011;68365;51.472;5.712;2023-04-08T08:16:02;11.32;;;5.03;;
42104;SDS011;68365;51.472;5.712;2023-04-08T08:18:32;13.77;;;5.43;;
42104;SDS011;68365;51.472;5.712;2023-04-08T08:21:00;11.85;;;5.70;;
42104;SDS011;68365;51.472;5.712;2023-04-08T08:23:26;13.25;;;5.80;;
42104;SDS011;68365;51.472;5.712;2023-04-08T08:25:59;14.00;;;6.03;;
42104;SDS011;68365;51.472;5.712;2023-04-08T08:28:27;10.70;;;6.20;;
42104;SDS011;68365;51.472;5.712;2023-04-08T08:30:53;10.25;;;6.45;;
42104;SDS011;68365;51.472;5.712;2023-04-08T08:33:18;12.60;;;5.68;;
42104;SDS011;68365;51.472;5.712;2023-04-08T08:35:45;10.80;;;6.10;;
42104;SDS011;68365;51.472;5.712;2023-04-08T08:38:11;10.70;;;6.00;;
42104;SDS011;68365;51.472;5.712;2023-04-08T08:40:41;12.15;;;5.80;;
42104;SDS011;68365;51.472;5.712;2023-04-08T08:43:09;12.85;;;5.53;;
42104;SDS011;68365;51.472;5.712;2023-04-08T08:45:39;13.00;;;6.10;;
42104;SDS011;68365;51.472;5.712;2023-04-08T08:48:06;12.82;;;5.97;;
42104;SDS011;68365;51.472;5.712;2023-04-08T08:50:33;9.98;;;5.43;;
42104;SDS011;68365;51.472;5.712;2023-04-08T08:53:00;8.95;;;5.50;;
42104;SDS011;68365;51.472;5.712;2023-04-08T08:55:28;9.18;;;5.22;;
42104;SDS011;68365;51.472;5.712;2023-04-08T08:58:03;8.70;;;5.82;;
42104;SDS011;68365;51.472;5.712;2023-04-08T09:00:38;9.82;;;5.40;;
42104;SDS011;68365;51.472;5.712;2023-04-08T09:03:19;9.30;;;5.05;;
42104;SDS011;68365;51.472;5.712;2023-04-08T09:05:54;8.70;;;5.15;;
42104;SDS011;68365;51.472;5.712;2023-04-08T09:08:38;7.90;;;5.28;;
42104;SDS011;68365;51.472;5.712;2023-04-08T09:15:06;9.43;;;4.72;;
42104;SDS011;68365;51.472;5.712;2023-04-08T09:17:38;7.55;;;4.63;;
42104;SDS011;68365;51.472;5.712;2023-04-08T09:20:08;10.55;;;5.15;;
42104;SDS011;68365;51.472;5.712;2023-04-08T09:25:40;8.13;;;4.90;;
42104;SDS011;68365;51.472;5.712;2023-04-08T09:28:17;8.10;;;4.97;;
42104;SDS011;68365;51.472;5.712;2023-04-08T09:30:47;8.13;;;4.75;;
42104;SDS011;68365;51.472;5.712;2023-04-08T09:33:43;7.63;;;4.57;;
42104;SDS011;68365;51.472;5.712;2023-04-08T09:36:09;7.97;;;4.47;;
42104;SDS011;68365;51.472;5.712;2023-04-08T09:38:35;10.80;;;4.78;;
42104;SDS011;68365;51.472;5.712;2023-04-08T09:41:01;7.28;;;4.40;;
42104;SDS011;68365;51.472;5.712;2023-04-08T09:43:42;8.88;;;4.63;;
42104;SDS011;68365;51.472;5.712;2023-04-08T09:46:14;5.70;;;4.35;;
42104;SDS011;68365;51.472;5.712;2023-04-08T09:48:49;11.45;;;4.50;;
42104;SDS011;68365;51.472;5.712;2023-04-08T09:51:35;7.20;;;4.38;;
42104;SDS011;68365;51.472;5.712;2023-04-08T09:54:52;7.90;;;4.75;;
42104;SDS011;68365;51.472;5.712;2023-04-08T10:00:16;34.22;;;5.53;;
42104;SDS011;68365;51.472;5.712;2023-04-08T10:05:52;26.05;;;5.07;;
42104;SDS011;68365;51.472;5.712;2023-04-08T10:08:20;25.20;;;4.57;;
42104;SDS011;68365;51.472;5.712;2023-04-08T10:10:51;18.90;;;4.68;;
42104;SDS011;68365;51.472;5.712;2023-04-08T10:13:18;22.75;;;5.18;;
42104;SDS011;68365;51.472;5.712;2023-04-08T10:15:44;22.83;;;4.75;;
42104;SDS011;68365;51.472;5.712;2023-04-08T10:20:44;17.02;;;4.75;;
42104;SDS011;68365;51.472;5.712;2023-04-08T10:23:15;12.98;;;4.47;;
42104;SDS011;68365;51.472;5.712;2023-04-08T10:25:42;13.55;;;4.60;;
42104;SDS011;68365;51.472;5.712;2023-04-08T10:30:46;11.95;;;4.53;;
42104;SDS011;68365;51.472;5.712;2023-04-08T10:33:19;12.45;;;4.20;;
42104;SDS011;68365;51.472;5.712;2023-04-08T10:38:52;16.25;;;4.30;;
42104;SDS011;68365;51.472;5.712;2023-04-08T10:41:22;18.13;;;4.57;;
42104;SDS011;68365;51.472;5.712;2023-04-08T10:43:48;18.23;;;4.65;;
42104;SDS011;68365;51.472;5.712;2023-04-08T10:46:14;13.90;;;4.47;;
42104;SDS011;68365;51.472;5.712;2023-04-08T10:48:41;14.25;;;4.00;;
42104;SDS011;68365;51.472;5.712;2023-04-08T10:51:09;14.05;;;4.55;;
42104;SDS011;68365;51.472;5.712;2023-04-08T10:56:48;10.15;;;4.38;;
42104;SDS011;68365;51.472;5.712;2023-04-08T10:59:17;11.85;;;3.95;;
42104;SDS011;68365;51.472;5.712;2023-04-08T11:02:02;12.40;;;4.30;;
42104;SDS011;68365;51.472;5.712;2023-04-08T11:04:43;10.93;;;4.07;;
42104;SDS011;68365;51.472;5.712;2023-04-08T11:07:12;9.63;;;4.40;;
42104;SDS011;68365;51.472;5.712;2023-04-08T11:09:39;7.13;;;3.90;;
42104;SDS011;68365;51.472;5.712;2023-04-08T11:12:15;11.68;;;4.07;;
42104;SDS011;68365;51.472;5.712;2023-04-08T11:15:31;8.63;;;3.97;;
42104;SDS011;68365;51.472;5.712;2023-04-08T11:18:23;9.50;;;4.22;;
42104;SDS011;68365;51.472;5.712;2023-04-08T11:21:24;11.23;;;4.38;;
42104;SDS011;68365;51.472;5.712;2023-04-08T11:28:18;10.57;;;3.90;;
42104;SDS011;68365;51.472;5.712;2023-04-08T11:30:44;9.43;;;4.47;;
42104;SDS011;68365;51.472;5.712;2023-04-08T11:33:12;5.57;;;4.10;;
42104;SDS011;68365;51.472;5.712;2023-04-08T11:35:39;5.80;;;3.78;;
42104;SDS011;68365;51.472;5.712;2023-04-08T11:38:08;9.85;;;4.43;;
42104;SDS011;68365;51.472;5.712;2023-04-08T11:40:35;7.07;;;4.00;;
42104;SDS011;68365;51.472;5.712;2023-04-08T11:43:08;13.07;;;4.20;;
42104;SDS011;68365;51.472;5.712;2023-04-08T11:45:41;8.55;;;4.40;;
42104;SDS011;68365;51.472;5.712;2023-04-08T11:48:08;8.82;;;3.80;;
42104;SDS011;68365;51.472;5.712;2023-04-08T11:50:41;6.43;;;4.28;;
42104;SDS011;68365;51.472;5.712;2023-04-08T11:53:28;6.45;;;4.22;;
42104;SDS011;68365;51.472;5.712;2023-04-08T11:55:54;9.20;;;4.00;;
42104;SDS011;68365;51.472;5.712;2023-04-08T11:58:20;8.27;;;4.45;;
42104;SDS011;68365;51.472;5.712;2023-04-08T12:00:46;5.72;;;4.03;;
42104;SDS011;68365;51.472;5.712;2023-04-08T12:03:13;9.30;;;4.13;;
42104;SDS011;68365;51.472;5.712;2023-04-08T12:05:39;7.35;;;4.00;;
42104;SDS011;68365;51.472;5.712;2023-04-08T12:08:06;8.77;;;4.53;;
42104;SDS011;68365;51.472;5.712;2023-04-08T12:10:34;9.27;;;4.43;;
42104;SDS011;68365;51.472;5.712;2023-04-08T12:13:00;8.02;;;4.53;;
42104;SDS011;68365;51.472;5.712;2023-04-08T12:15:29;7.22;;;4.80;;
42104;SDS011;68365;51.472;5.712;2023-04-08T12:17:55;8.95;;;4.95;;
42104;SDS011;68365;51.472;5.712;2023-04-08T12:20:21;11.55;;;5.32;;
42104;SDS011;68365;51.472;5.712;2023-04-08T12:22:47;8.43;;;5.60;;
42104;SDS011;68365;51.472;5.712;2023-04-08T12:25:13;8.13;;;5.55;;
42104;SDS011;68365;51.472;5.712;2023-04-08T12:27:39;10.50;;;5.95;;
42104;SDS011;68365;51.472;5.712;2023-04-08T12:30:06;10.43;;;6.50;;
42104;SDS011;68365;51.472;5.712;2023-04-08T12:32:32;10.30;;;6.30;;
42104;SDS011;68365;51.472;5.712;2023-04-08T12:34:58;13.75;;;9.27;;
42104;SDS011;68365;51.472;5.712;2023-04-08T12:37:24;14.18;;;7.82;;
42104;SDS011;68365;51.472;5.712;2023-04-08T12:39:50;9.10;;;6.80;;
42104;SDS011;68365;51.472;5.712;2023-04-08T12:42:16;11.50;;;6.80;;
42104;SDS011;68365;51.472;5.712;2023-04-08T12:44:42;9.20;;;6.70;;
42104;SDS011;68365;51.472;5.712;2023-04-08T12:47:08;7.65;;;6.60;;
42104;SDS011;68365;51.472;5.712;2023-04-08T12:49:33;9.05;;;6.50;;
42104;SDS011;68365;51.472;5.712;2023-04-08T12:51:59;10.40;;;5.88;;
42104;SDS011;68365;51.472;5.712;2023-04-08T12:54:29;8.10;;;5.78;;
42104;SDS011;68365;51.472;5.712;2023-04-08T12:56:57;9.50;;;5.82;;
42104;SDS011;68365;51.472;5.712;2023-04-08T12:59:23;8.50;;;5.70;;
42104;SDS011;68365;51.472;5.712;2023-04-08T13:05:46;8.77;;;5.40;;
42104;SDS011;68365;51.472;5.712;2023-04-08T13:16:24;7.00;;;5.50;;
42104;SDS011;68365;51.472;5.712;2023-04-08T13:23:01;8.30;;;5.03;;
42104;SDS011;68365;51.472;5.712;2023-04-08T13:44:41;8.18;;;5.30;;
42104;SDS011;68365;51.472;5.712;2023-04-08T13:47:43;9.68;;;4.88;;
42104;SDS011;68365;51.472;5.712;2023-04-08T13:50:09;8.63;;;4.55;;
42104;SDS011;68365;51.472;5.712;2023-04-08T13:56:00;7.97;;;4.80;;
42104;SDS011;68365;51.472;5.712;2023-04-08T13:58:26;10.57;;;5.22;;
42104;SDS011;68365;51.472;5.712;2023-04-08T14:00:52;7.30;;;4.68;;
42104;SDS011;68365;51.472;5.712;2023-04-08T14:03:18;8.55;;;4.80;;
42104;SDS011;68365;51.472;5.712;2023-04-08T14:05:43;6.25;;;4.85;;
42104;SDS011;68365;51.472;5.712;2023-04-08T14:08:09;5.95;;;4.57;;
42104;SDS011;68365;51.472;5.712;2023-04-08T14:10:37;6.75;;;4.65;;
42104;SDS011;68365;51.472;5.712;2023-04-08T14:13:03;7.65;;;4.82;;
42104;SDS011;68365;51.472;5.712;2023-04-08T14:15:29;6.13;;;4.30;;
42104;SDS011;68365;51.472;5.712;2023-04-08T14:17:55;6.78;;;4.75;;
42104;SDS011;68365;51.472;5.712;2023-04-08T14:20:21;6.93;;;4.55;;
42104;SDS011;68365;51.472;5.712;2023-04-08T14:22:47;6.80;;;4.78;;
42104;SDS011;68365;51.472;5.712;2023-04-08T14:25:12;6.03;;;4.68;;
42104;SDS011;68365;51.472;5.712;2023-04-08T14:27:38;6.85;;;4.40;;
42104;SDS011;68365;51.472;5.712;2023-04-08T14:30:07;7.43;;;4.90;;
42104;SDS011;68365;51.472;5.712;2023-04-08T14:32:33;11.85;;;4.80;;
42104;SDS011;68365;51.472;5.712;2023-04-08T14:34:59;6.80;;;4.30;;
42104;SDS011;68365;51.472;5.712;2023-04-08T14:37:25;9.20;;;4.90;;
42104;SDS011;68365;51.472;5.712;2023-04-08T14:39:51;7.60;;;4.53;;
42104;SDS011;68365;51.472;5.712;2023-04-08T14:42:17;8.02;;;4.88;;
42104;SDS011;68365;51.472;5.712;2023-04-08T14:44:42;6.53;;;4.43;;
42104;SDS011;68365;51.472;5.712;2023-04-08T14:47:08;5.05;;;4.43;;
42104;SDS011;68365;51.472;5.712;2023-04-08T14:49:36;8.10;;;4.60;;
42104;SDS011;68365;51.472;5.712;2023-04-08T14:52:21;5.68;;;4.43;;
42104;SDS011;68365;51.472;5.712;2023-04-08T14:55:47;6.90;;;4.85;;
42104;SDS011;68365;51.472;5.712;2023-04-08T14:58:26;7.13;;;4.28;;
42104;SDS011;68365;51.472;5.712;2023-04-08T15:00:51;7.43;;;4.75;;
42104;SDS011;68365;51.472;5.712;2023-04-08T15:03:17;8.98;;;4.60;;
42104;SDS011;68365;51.472;5.712;2023-04-08T15:05:46;6.75;;;4.82;;
42104;SDS011;68365;51.472;5.712;2023-04-08T15:11:06;10.13;;;4.43;;
42104;SDS011;68365;51.472;5.712;2023-04-08T15:13:51;6.97;;;4.35;;
42104;SDS011;68365;51.472;5.712;2023-04-08T15:16:17;8.13;;;4.18;;
42104;SDS011;68365;51.472;5.712;2023-04-08T15:25:25;7.45;;;4.68;;
42104;SDS011;68365;51.472;5.712;2023-04-08T15:27:51;9.73;;;4.95;;
42104;SDS011;68365;51.472;5.712;2023-04-08T15:30:17;9.27;;;4.90;;
42104;SDS011;68365;51.472;5.712;2023-04-08T15:32:51;11.32;;;5.03;;
42104;SDS011;68365;51.472;5.712;2023-04-08T15:35:17;9.77;;;4.50;;
42104;SDS011;68365;51.472;5.712;2023-04-08T15:37:43;9.93;;;4.30;;
42104;SDS011;68365;51.472;5.712;2023-04-08T15:40:09;10.07;;;4.78;;
42104;SDS011;68365;51.472;5.712;2023-04-08T15:42:35;10.68;;;6.22;;
42104;SDS011;68365;51.472;5.712;2023-04-08T15:45:02;136.85;;;71.53;;
42104;SDS011;68365;51.472;5.712;2023-04-08T15:47:28;106.63;;;60.88;;
42104;SDS011;68365;51.472;5.712;2023-04-08T15:49:54;161.60;;;91.57;;
42104;SDS011;68365;51.472;5.712;2023-04-08T15:52:20;217.95;;;104.90;;
42104;SDS011;68365;51.472;5.712;2023-04-08T15:54:46;251.20;;;116.50;;
42104;SDS011;68365;51.472;5.712;2023-04-08T15:57:12;233.75;;;114.43;;
42104;SDS011;68365;51.472;5.712;2023-04-08T15:59:38;261.48;;;128.40;;
42104;SDS011;68365;51.472;5.712;2023-04-08T16:02:04;319.63;;;152.40;;
42104;SDS011;68365;51.472;5.712;2023-04-08T16:04:30;341.05;;;163.85;;
42104;SDS011;68365;51.472;5.712;2023-04-08T16:06:56;355.25;;;174.95;;
42104;SDS011;68365;51.472;5.712;2023-04-08T16:09:22;378.88;;;186.60;;
42104;SDS011;68365;51.472;5.712;2023-04-08T16:11:50;368.88;;;186.20;;